createdAt,value
2018-06-15T00:00:09.984Z,74.17
2018-06-15T00:01:10.028Z,74.27
2018-06-15T00:02:10.022Z,73.78
2018-06-15T00:03:10.012Z,73.88
2018-06-15T00:04:10.040Z,73.97
2018-06-15T00:05:10.030Z,73.97
2018-06-15T00:06:10.048Z,74.36
2018-06-15T00:07:10.011Z,74.36
2018-06-15T00:08:10.008Z,73.97
2018-06-15T00:09:10.052Z,74.17
2018-06-15T00:10:10.026Z,74.27
2018-06-15T00:11:10.038Z,73.88
2018-06-15T00:12:10.040Z,73.97
2018-06-15T00:13:10.056Z,73.97
2018-06-15T00:14:10.071Z,73.97
2018-06-15T00:15:10.055Z,73.97
2018-06-15T00:16:10.044Z,74.27
2018-06-15T00:17:10.042Z,74.17
2018-06-15T00:18:10.023Z,73.78
2018-06-15T00:19:10.069Z,73.97
2018-06-15T00:20:10.089Z,74.27
2018-06-15T00:21:10.057Z,73.97
2018-06-15T00:22:10.041Z,74.07
2018-06-15T00:23:10.033Z,73.97
2018-06-15T00:24:13.008Z,74.36
2018-06-15T00:25:10.078Z,74.55
2018-06-15T00:26:10.064Z,74.75
2018-06-15T00:27:10.115Z,74.46
2018-06-15T00:28:10.112Z,74.36
2018-06-15T00:29:10.095Z,74.07
2018-06-15T00:30:10.075Z,74.17
2018-06-15T00:31:10.088Z,74.17
2018-06-15T00:32:10.092Z,73.97
2018-06-15T00:33:10.071Z,74.07
2018-06-15T00:34:10.087Z,73.88
2018-06-15T00:35:10.081Z,74.17
2018-06-15T00:36:10.092Z,73.78
2018-06-15T00:37:10.127Z,74.07
2018-06-15T00:38:10.076Z,74.07
2018-06-15T00:39:10.095Z,73.97
2018-06-15T00:40:10.128Z,73.68
2018-06-15T00:41:10.096Z,73.88
2018-06-15T00:42:10.106Z,73.78
2018-06-15T00:43:10.083Z,73.97
2018-06-15T00:44:10.101Z,73.88
2018-06-15T00:45:10.120Z,73.88
2018-06-15T00:46:10.107Z,73.68
2018-06-15T00:47:10.140Z,73.78
2018-06-15T00:48:10.116Z,73.88
2018-06-15T00:49:10.078Z,74.07
2018-06-15T00:50:10.160Z,73.68
2018-06-15T00:51:10.120Z,73.88
2018-06-15T00:52:10.124Z,73.49
2018-06-15T00:53:10.130Z,73.59
2018-06-15T00:54:10.135Z,74.07
2018-06-15T00:55:10.113Z,73.68
2018-06-15T00:56:10.117Z,73.68
2018-06-15T00:57:10.177Z,73.88
2018-06-15T00:58:10.158Z,73.78
2018-06-15T00:59:10.168Z,74.07
2018-06-15T01:00:10.131Z,73.97
2018-06-15T01:01:10.132Z,73.68
2018-06-15T01:02:10.183Z,73.49
2018-06-15T01:03:10.141Z,73.68
2018-06-15T01:04:10.173Z,73.3
2018-06-15T01:05:10.148Z,73.97
2018-06-15T01:06:10.158Z,73.59
2018-06-15T01:07:10.169Z,73.97
2018-06-15T01:08:10.171Z,73.88
2018-06-15T01:09:10.129Z,73.49
2018-06-15T01:10:10.113Z,73.68
2018-06-15T01:11:10.132Z,73.97
2018-06-15T01:12:10.199Z,73.59
2018-06-15T01:13:10.152Z,73.84
2018-06-15T01:14:10.166Z,73.97
2018-06-15T01:15:10.147Z,73.78
2018-06-15T01:16:10.196Z,74.17
2018-06-15T01:17:10.155Z,73.97
2018-06-15T01:18:10.169Z,74.27
2018-06-15T01:19:10.147Z,74.07
2018-06-15T01:20:10.181Z,73.68
2018-06-15T01:21:10.208Z,73.97
2018-06-15T01:26:27.217Z,73.78
2018-06-15T01:26:38.678Z,73.59
2018-06-15T01:27:38.687Z,73.59
2018-06-15T01:28:38.643Z,73.59
2018-06-15T01:29:38.660Z,73.49
2018-06-15T01:30:38.659Z,73.68
2018-06-15T01:31:38.865Z,73.68
2018-06-15T01:32:38.653Z,73.55
2018-06-15T01:33:38.650Z,73.97
2018-06-15T01:34:38.679Z,73.84
2018-06-15T01:35:38.692Z,73.88
2018-06-15T01:36:38.721Z,73.68
2018-06-15T01:37:38.698Z,73.97
2018-06-15T01:38:38.659Z,74.07
2018-06-15T01:39:38.693Z,74.17
2018-06-15T01:40:38.695Z,74.17
2018-06-15T01:41:38.677Z,74.04
2018-06-15T01:42:38.706Z,73.97
2018-06-15T01:43:38.694Z,73.88
2018-06-15T01:44:38.671Z,73.88
2018-06-15T01:45:38.650Z,74.04
2018-06-15T01:46:38.707Z,73.84
2018-06-15T01:47:38.718Z,73.94
2018-06-15T01:48:38.720Z,73.94
2018-06-15T01:49:38.728Z,73.84
2018-06-15T01:50:38.666Z,73.74
2018-06-15T01:51:38.686Z,73.65
2018-06-15T01:52:38.670Z,73.68
2018-06-15T01:53:38.705Z,73.49
2018-06-15T01:54:38.693Z,73.65
2018-06-15T01:55:38.718Z,73.68
2018-06-15T01:56:38.700Z,73.46
2018-06-15T01:57:38.730Z,73.1
2018-06-15T01:58:38.690Z,72.81
2018-06-15T01:59:38.726Z,73.74
2018-06-15T02:00:38.725Z,73.55
2018-06-15T02:01:38.758Z,73.36
2018-06-15T02:02:38.734Z,73.36
2018-06-15T02:03:38.735Z,72.91
2018-06-15T02:04:38.720Z,73.55
2018-06-15T02:05:38.735Z,73.26
2018-06-15T02:06:38.711Z,73.36
2018-06-15T02:07:38.797Z,73.1
2018-06-15T02:08:38.782Z,73.16
2018-06-15T02:09:38.730Z,73.16
2018-06-15T02:10:38.761Z,72.97
2018-06-15T02:11:38.727Z,73.46
2018-06-15T02:12:38.770Z,73.16
2018-06-15T02:13:38.713Z,73.65
2018-06-15T02:14:38.750Z,73.07
2018-06-15T02:15:38.743Z,72.97
2018-06-15T02:16:38.765Z,72.97
2018-06-15T02:17:38.741Z,73.26
2018-06-15T02:18:38.740Z,73.26
2018-06-15T02:19:38.746Z,73.26
2018-06-15T02:20:38.756Z,73.26
2018-06-15T02:21:38.753Z,73.36
2018-06-15T02:22:38.790Z,73.16
2018-06-15T02:23:38.782Z,73.65
2018-06-15T02:24:38.746Z,73.26
2018-06-15T02:25:38.761Z,73.26
2018-06-15T02:26:38.770Z,72.97
2018-06-15T02:27:38.745Z,73.26
2018-06-15T02:28:38.752Z,73.07
2018-06-15T02:29:38.759Z,72.97
2018-06-15T02:30:38.847Z,73.36
2018-06-15T02:31:38.795Z,73.36
2018-06-15T02:32:38.805Z,72.88
2018-06-15T02:33:38.762Z,73.36
2018-06-15T02:34:38.769Z,73.07
2018-06-15T02:35:38.773Z,73.26
2018-06-15T02:36:38.780Z,73.26
2018-06-15T02:37:38.828Z,73.59
2018-06-15T02:38:38.771Z,73.74
2018-06-15T02:39:38.812Z,73.46
2018-06-15T02:40:38.839Z,73.74
2018-06-15T02:41:38.831Z,73.26
2018-06-15T02:42:38.793Z,73.26
2018-06-15T02:43:39.416Z,73.26
2018-06-15T02:44:38.836Z,73.26
2018-06-15T02:45:38.879Z,73.26
2018-06-15T02:46:38.799Z,73.16
2018-06-15T02:47:38.880Z,73.65
2018-06-15T02:48:38.811Z,73.84
2018-06-15T02:49:38.815Z,73.84
2018-06-15T02:50:38.799Z,73.46
2018-06-15T02:51:38.793Z,72.97
2018-06-15T02:52:38.789Z,73.26
2018-06-15T02:53:38.832Z,73.16
2018-06-15T02:54:38.792Z,72.97
2018-06-15T02:55:38.845Z,72.88
2018-06-15T02:56:38.827Z,72.97
2018-06-15T02:57:38.812Z,73.26
2018-06-15T02:58:38.850Z,73.46
2018-06-15T02:59:38.805Z,73.74
2018-06-15T03:00:38.831Z,73.55
2018-06-15T03:01:38.861Z,73.55
2018-06-15T03:02:38.846Z,73.55
2018-06-15T03:03:38.827Z,73.07
2018-06-15T03:04:38.882Z,73.36
2018-06-15T03:05:38.885Z,72.88
2018-06-15T03:06:38.884Z,73.26
2018-06-15T03:07:38.878Z,73.07
2018-06-15T03:08:38.861Z,73.36
2018-06-15T03:09:38.850Z,73.26
2018-06-15T03:10:39.611Z,73.26
2018-06-15T03:11:38.830Z,72.97
2018-06-15T03:12:38.885Z,73.65
2018-06-15T03:13:38.821Z,72.97
2018-06-15T03:14:38.873Z,72.88
2018-06-15T03:15:38.915Z,73.07
2018-06-15T03:16:38.855Z,73.26
2018-06-15T03:17:38.892Z,73.07
2018-06-15T03:18:38.842Z,73.55
2018-06-15T03:19:38.881Z,73.97
2018-06-15T03:20:38.843Z,73.65
2018-06-15T03:21:38.876Z,73.46
2018-06-15T03:22:38.875Z,72.97
2018-06-15T03:23:38.899Z,73.55
2018-06-15T03:24:38.913Z,72.97
2018-06-15T03:25:38.889Z,72.97
2018-06-15T03:26:38.877Z,73.07
2018-06-15T03:27:38.859Z,73.07
2018-06-15T03:28:38.882Z,72.97
2018-06-15T03:29:38.920Z,73.26
2018-06-15T03:30:38.874Z,73.84
2018-06-15T03:31:38.891Z,73.55
2018-06-15T03:32:38.888Z,73.07
2018-06-15T03:33:38.862Z,73.16
2018-06-15T03:34:38.914Z,73.36
2018-06-15T03:35:38.884Z,72.97
2018-06-15T03:36:38.881Z,73.16
2018-06-15T03:37:38.932Z,73.26
2018-06-15T03:38:38.879Z,73.46
2018-06-15T03:39:38.909Z,73.46
2018-06-15T03:40:38.890Z,73.46
2018-06-15T03:41:38.924Z,73.74
2018-06-15T03:42:39.000Z,73.65
2018-06-15T03:43:38.891Z,73.84
2018-06-15T03:44:38.911Z,73.46
2018-06-15T03:45:38.965Z,73.16
2018-06-15T03:46:38.901Z,73.65
2018-06-15T03:47:38.959Z,73.74
2018-06-15T03:48:38.991Z,73.65
2018-06-15T03:49:39.461Z,73.36
2018-06-15T03:50:38.898Z,73.46
2018-06-15T03:51:38.956Z,73.07
2018-06-15T03:52:38.922Z,72.97
2018-06-15T03:53:38.931Z,73.36
2018-06-15T03:54:38.926Z,73.26
2018-06-15T03:55:38.919Z,73.16
2018-06-15T03:56:38.924Z,73.36
2018-06-15T03:57:38.954Z,73.26
2018-06-15T03:58:38.933Z,72.88
2018-06-15T03:59:38.920Z,73.26
2018-06-15T04:00:38.964Z,73.16
2018-06-15T04:01:39.513Z,72.97
2018-06-15T04:02:39.641Z,73.46
2018-06-15T04:03:38.956Z,73.36
2018-06-15T04:04:38.965Z,73.74
2018-06-15T04:05:38.975Z,73.55
2018-06-15T04:06:39.622Z,73.26
2018-06-15T04:07:39.051Z,73.84
2018-06-15T04:08:38.940Z,73.46
2018-06-15T04:09:38.952Z,73.84
2018-06-15T04:10:38.977Z,73.94
2018-06-15T04:11:38.969Z,74.04
2018-06-15T04:12:38.965Z,73.46
2018-06-15T04:13:38.982Z,73.26
2018-06-15T04:14:38.931Z,73.26
2018-06-15T04:15:38.939Z,72.88
2018-06-15T04:16:38.966Z,73.65
2018-06-15T04:17:38.986Z,73.84
2018-06-15T04:18:39.090Z,73.16
2018-06-15T04:19:38.958Z,73.36
2018-06-15T04:20:39.012Z,72.97
2018-06-15T04:21:38.962Z,73.46
2018-06-15T04:22:39.041Z,73.74
2018-06-15T04:23:38.935Z,73.55
2018-06-15T04:24:38.971Z,73.65
2018-06-15T04:25:38.952Z,73.94
2018-06-15T04:26:38.955Z,73.74
2018-06-15T04:27:39.000Z,73.65
2018-06-15T04:28:39.027Z,73.84
2018-06-15T04:29:38.980Z,73.65
2018-06-15T04:30:39.017Z,73.84
2018-06-15T04:31:39.033Z,73.84
2018-06-15T04:32:39.001Z,73.84
2018-06-15T04:33:39.027Z,74.04
2018-06-15T04:34:38.959Z,73.94
2018-06-15T04:35:39.024Z,73.65
2018-06-15T04:36:39.007Z,73.94
2018-06-15T04:37:39.064Z,73.55
2018-06-15T04:38:39.003Z,73.46
2018-06-15T04:39:39.020Z,73.55
2018-06-15T04:40:38.999Z,73.07
2018-06-15T04:41:39.055Z,73.55
2018-06-15T04:42:39.007Z,73.74
2018-06-15T04:43:39.044Z,73.74
2018-06-15T04:44:39.012Z,73.65
2018-06-15T04:45:38.985Z,73.46
2018-06-15T04:46:39.029Z,73.55
2018-06-15T04:47:39.037Z,73.36
2018-06-15T04:48:39.121Z,73.3
2018-06-15T04:49:39.022Z,73.26
2018-06-15T04:50:38.996Z,72.58
2018-06-15T04:51:39.119Z,72.58
2018-06-15T04:52:39.035Z,73.16
2018-06-15T04:53:39.024Z,73.07
2018-06-15T04:54:39.059Z,73.84
2018-06-15T04:55:39.026Z,73.55
2018-06-15T04:56:39.030Z,73.07
2018-06-15T04:57:39.087Z,73.26
2018-06-15T04:58:39.093Z,73.65
2018-06-15T04:59:38.997Z,73.46
2018-06-15T05:00:39.048Z,73.65
2018-06-15T05:01:39.040Z,73.07
2018-06-15T05:02:39.016Z,73.65
2018-06-15T05:03:39.125Z,73.94
2018-06-15T05:04:39.027Z,73.46
2018-06-15T05:05:39.012Z,73.36
2018-06-15T05:06:39.122Z,73.26
2018-06-15T05:07:39.134Z,73.55
2018-06-15T05:08:39.032Z,73.55
2018-06-15T05:09:39.117Z,73.65
2018-06-15T05:10:39.073Z,73.65
2018-06-15T05:11:39.053Z,73.65
2018-06-15T05:12:39.142Z,72.97
2018-06-15T05:13:39.065Z,72.49
2018-06-15T05:14:39.073Z,73.26
2018-06-15T05:15:39.047Z,72.88
2018-06-15T05:16:39.099Z,73.16
2018-06-15T05:17:39.039Z,73.07
2018-06-15T05:18:39.138Z,73.26
2018-06-15T05:19:39.066Z,73.55
2018-06-15T05:20:39.083Z,73.07
2018-06-15T05:21:39.039Z,73.39
2018-06-15T05:22:39.096Z,73.46
2018-06-15T05:23:39.100Z,73.78
2018-06-15T05:24:39.112Z,73.07
2018-06-15T05:25:39.084Z,73.26
2018-06-15T05:26:40.140Z,73.26
2018-06-15T05:27:39.071Z,73.16
2018-06-15T05:28:39.125Z,72.49
2018-06-15T05:29:39.093Z,72.3
2018-06-15T05:30:39.112Z,72.39
2018-06-15T05:31:39.075Z,72.62
2018-06-15T05:32:39.012Z,72.68
2018-06-15T05:33:39.016Z,72.39
2018-06-15T05:34:39.021Z,72.62
2018-06-15T05:35:39.256Z,72.91
2018-06-15T05:36:38.996Z,73.1
2018-06-15T05:37:39.040Z,72.97
2018-06-15T05:38:39.059Z,72.68
2018-06-15T05:39:39.043Z,73.49
2018-06-15T05:40:39.030Z,73.36
2018-06-15T05:41:39.059Z,73.49
2018-06-15T05:42:39.188Z,72.88
2018-06-15T05:43:39.023Z,72.91
2018-06-15T05:44:39.083Z,72.62
2018-06-15T05:45:39.064Z,72.68
2018-06-15T05:46:39.247Z,72.42
2018-06-15T05:47:39.074Z,72.42
2018-06-15T05:48:39.021Z,72
2018-06-15T05:49:39.057Z,72.72
2018-06-15T05:50:39.059Z,72.62
2018-06-15T05:51:39.043Z,72.58
2018-06-15T05:52:39.095Z,71.94
2018-06-15T05:53:39.031Z,72.33
2018-06-15T05:54:39.107Z,72.49
2018-06-15T05:55:39.054Z,72
2018-06-15T05:56:39.073Z,71.94
2018-06-15T05:57:39.108Z,71.94
2018-06-15T05:58:39.064Z,71.91
2018-06-15T05:59:39.035Z,72.1
2018-06-15T06:00:39.159Z,72.2
2018-06-15T06:01:39.144Z,72.14
2018-06-15T06:02:39.122Z,72.3
2018-06-15T06:03:39.156Z,72.1
2018-06-15T06:04:39.110Z,71.91
2018-06-15T06:05:39.170Z,72.39
2018-06-15T06:06:39.141Z,72.14
2018-06-15T06:07:39.198Z,72.3
2018-06-15T06:08:39.188Z,72.2
2018-06-15T06:09:39.165Z,72.3
2018-06-15T06:10:39.167Z,72.1
2018-06-15T06:11:39.180Z,72
2018-06-15T06:12:39.191Z,72.2
2018-06-15T06:13:39.171Z,71.72
2018-06-15T06:14:39.178Z,71.81
2018-06-15T06:15:39.189Z,71.81
2018-06-15T06:16:39.153Z,71.91
2018-06-15T06:17:39.170Z,72.3
2018-06-15T06:18:39.170Z,71.91
2018-06-15T06:19:39.213Z,71.91
2018-06-15T06:20:39.257Z,72.2
2018-06-15T06:21:39.216Z,71.91
2018-06-15T06:22:39.204Z,72
2018-06-15T06:23:39.160Z,71.91
2018-06-15T06:24:39.215Z,72.2
2018-06-15T06:25:39.195Z,72.1
2018-06-15T06:26:39.177Z,72.2
2018-06-15T06:27:39.159Z,71.81
2018-06-15T06:28:39.195Z,71.62
2018-06-15T06:29:39.199Z,71.81
2018-06-15T06:30:39.195Z,71.81
2018-06-15T06:31:39.229Z,72
2018-06-15T06:32:39.336Z,71.91
2018-06-15T06:33:39.195Z,72
2018-06-15T06:34:39.173Z,72.2
2018-06-15T06:35:39.209Z,72
2018-06-15T06:36:39.191Z,71.81
2018-06-15T06:37:39.243Z,71.91
2018-06-15T06:38:39.207Z,72.2
2018-06-15T06:39:39.209Z,71.72
2018-06-15T06:40:39.250Z,72.3
2018-06-15T06:41:39.258Z,71.72
2018-06-15T06:42:39.234Z,71.72
2018-06-15T06:43:39.235Z,71.81
2018-06-15T06:44:39.264Z,71.91
2018-06-15T06:45:39.196Z,71.81
2018-06-15T06:46:39.256Z,71.81
2018-06-15T06:47:39.228Z,71.91
2018-06-15T06:48:39.239Z,71.72
2018-06-15T06:49:39.234Z,71.81
2018-06-15T06:50:39.267Z,72
2018-06-15T06:51:39.254Z,71.52
2018-06-15T06:56:07.616Z,71.62
2018-06-15T06:57:07.612Z,71.91
2018-06-15T06:58:07.647Z,71.91
2018-06-15T06:59:07.600Z,71.72
2018-06-15T07:00:07.630Z,71.52
2018-06-15T07:01:07.918Z,72.1
2018-06-15T07:02:07.670Z,72.1
2018-06-15T07:03:07.706Z,71.62
2018-06-15T07:04:07.636Z,71.62
2018-06-15T07:05:07.639Z,71.81
2018-06-15T07:06:07.612Z,71.72
2018-06-15T07:07:07.619Z,71.33
2018-06-15T07:08:07.633Z,71.72
2018-06-15T07:09:07.626Z,71.52
2018-06-15T07:10:07.669Z,71.23
2018-06-15T07:11:07.656Z,71.14
2018-06-15T07:12:07.622Z,71.23
2018-06-15T07:13:07.671Z,71.72
2018-06-15T07:14:07.648Z,71.72
2018-06-15T07:15:07.681Z,71.72
2018-06-15T07:16:07.686Z,71.62
2018-06-15T07:17:07.636Z,71.14
2018-06-15T07:18:07.624Z,71.33
2018-06-15T07:19:07.677Z,71.52
2018-06-15T07:20:07.675Z,71.23
2018-06-15T07:21:07.640Z,71.33
2018-06-15T07:22:07.675Z,71.23
2018-06-15T07:23:07.617Z,71.14
2018-06-15T07:24:07.677Z,71.23
2018-06-15T07:25:07.667Z,71.42
2018-06-15T07:26:07.668Z,71.42
2018-06-15T07:27:07.668Z,71.14
2018-06-15T07:28:07.651Z,71.14
2018-06-15T07:29:07.659Z,71.33
2018-06-15T07:30:07.693Z,70.75
2018-06-15T07:31:07.628Z,70.94
2018-06-15T07:32:07.681Z,71.33
2018-06-15T07:33:07.667Z,71.23
2018-06-15T07:34:07.638Z,71.62
2018-06-15T07:35:07.696Z,71.23
2018-06-15T07:36:07.700Z,71.33
2018-06-15T07:37:07.693Z,71.33
2018-06-15T07:38:07.663Z,71.33
2018-06-15T07:39:07.674Z,70.94
2018-06-15T07:40:07.687Z,71.23
2018-06-15T07:41:07.657Z,71.33
2018-06-15T07:42:23.727Z,71.14
2018-06-15T07:43:23.733Z,71.23
2018-06-15T07:44:23.729Z,71.42
2018-06-15T07:45:23.695Z,71.33
2018-06-15T07:46:23.706Z,70.94
2018-06-15T07:47:23.722Z,70.75
2018-06-15T07:48:23.728Z,70.84
2018-06-15T07:49:23.717Z,71.04
2018-06-15T07:50:23.720Z,70.94
2018-06-15T07:51:23.723Z,70.65
2018-06-15T07:52:23.760Z,70.56
2018-06-15T07:53:23.742Z,71.04
2018-06-15T07:54:23.770Z,70.84
2018-06-15T07:55:23.749Z,70.56
2018-06-15T07:56:23.860Z,70.94
2018-06-15T07:57:23.832Z,70.84
2018-06-15T07:58:23.840Z,70.75
2018-06-15T07:59:23.797Z,71.14
2018-06-15T08:00:23.780Z,70.36
2018-06-15T08:01:23.763Z,71.04
2018-06-15T08:02:23.734Z,70.46
2018-06-15T08:03:23.731Z,71.23
2018-06-15T08:04:23.773Z,70.56
2018-06-15T08:05:23.736Z,70.84
2018-06-15T08:06:26.920Z,70.94
2018-06-15T08:07:23.731Z,70.75
2018-06-15T08:08:23.730Z,71.04
2018-06-15T08:09:23.787Z,70.75
2018-06-15T08:10:23.745Z,70.36
2018-06-15T08:11:23.759Z,70.07
2018-06-15T08:12:23.758Z,69.4
2018-06-15T08:13:23.734Z,69.78
2018-06-15T08:14:23.759Z,70.07
2018-06-15T08:15:23.766Z,70.36
2018-06-15T08:16:23.734Z,70.56
2018-06-15T08:17:23.764Z,70.56
2018-06-15T08:18:23.779Z,70.46
2018-06-15T08:19:23.756Z,70.56
2018-06-15T08:20:23.771Z,70.75
2018-06-15T08:21:23.795Z,70.68
2018-06-15T08:22:23.750Z,70.75
2018-06-15T08:23:23.816Z,70.56
2018-06-15T08:24:23.792Z,70.56
2018-06-15T08:25:23.770Z,69.78
2018-06-15T08:26:23.780Z,69.68
2018-06-15T08:27:23.763Z,69.3
2018-06-15T08:28:23.807Z,69.1
2018-06-15T08:29:23.837Z,68.62
2018-06-15T08:30:23.824Z,68.91
2018-06-15T08:31:23.802Z,69.2
2018-06-15T08:32:23.759Z,69.49
2018-06-15T08:37:40.991Z,69.2
2018-06-15T08:37:52.503Z,69.68
2018-06-15T08:38:52.483Z,69.2
2018-06-15T08:39:52.449Z,69.78
2018-06-15T08:40:52.457Z,69.4
2018-06-15T08:41:52.491Z,68.91
2018-06-15T08:42:52.497Z,68.33
2018-06-15T08:43:52.507Z,68.72
2018-06-15T08:44:52.513Z,69.1
2018-06-15T08:45:52.467Z,68.91
2018-06-15T08:46:52.535Z,69.2
2018-06-15T08:47:52.506Z,68.91
2018-06-15T08:48:52.499Z,69.2
2018-06-15T08:49:52.527Z,68.82
2018-06-15T08:50:52.508Z,68.52
2018-06-15T08:51:52.525Z,68.91
2018-06-15T08:52:52.580Z,68.14
2018-06-15T08:53:52.492Z,69.01
2018-06-15T08:54:52.526Z,68.52
2018-06-15T08:55:52.535Z,68.91
2018-06-15T08:56:52.524Z,68.82
2018-06-15T08:57:52.544Z,68.52
2018-06-15T08:58:52.512Z,68.14
2018-06-15T08:59:52.532Z,67.94
2018-06-15T09:00:52.510Z,68.14
2018-06-15T09:01:52.574Z,69.2
2018-06-15T09:02:52.576Z,68.04
2018-06-15T09:03:52.531Z,68.04
2018-06-15T09:04:52.563Z,67.94
2018-06-15T09:05:52.521Z,68.24
2018-06-15T09:06:52.548Z,68.52
2018-06-15T09:07:52.572Z,68.24
2018-06-15T09:08:52.540Z,68.91
2018-06-15T09:09:52.558Z,68.82
2018-06-15T09:10:52.528Z,69.01
2018-06-15T09:11:52.545Z,67.75
2018-06-15T09:12:52.541Z,67.56
2018-06-15T09:13:52.532Z,66.69
2018-06-15T09:14:52.531Z,66.88
2018-06-15T09:15:52.584Z,67.46
2018-06-15T09:16:52.565Z,67.85
2018-06-15T09:17:55.240Z,68.04
2018-06-15T09:18:52.559Z,67.85
2018-06-15T09:19:52.538Z,68.14
2018-06-15T09:20:52.596Z,68.24
2018-06-15T09:21:52.553Z,68.33
2018-06-15T09:22:52.563Z,68.04
2018-06-15T09:23:52.540Z,67.08
2018-06-15T09:24:52.552Z,66.88
2018-06-15T09:25:52.548Z,67.56
2018-06-15T09:26:52.569Z,67.46
2018-06-15T09:27:52.567Z,67.66
2018-06-15T09:28:52.564Z,67.75
2018-06-15T09:29:52.601Z,67.56
2018-06-15T09:30:52.592Z,67.56
2018-06-15T09:31:52.589Z,67.75
2018-06-15T09:32:52.574Z,68.24
2018-06-15T09:33:52.608Z,67.46
2018-06-15T09:34:52.559Z,67.66
2018-06-15T09:35:52.599Z,67.27
2018-06-15T09:36:52.572Z,67.46
2018-06-15T09:37:52.660Z,67.27
2018-06-15T09:38:52.671Z,67.08
2018-06-15T09:39:52.614Z,66.98
2018-06-15T09:40:52.617Z,67.56
2018-06-15T09:41:53.862Z,67.17
2018-06-15T09:42:52.592Z,67.08
2018-06-15T09:43:52.595Z,67.27
2018-06-15T09:44:52.601Z,67.17
2018-06-15T09:45:52.613Z,67.08
2018-06-15T09:46:52.580Z,66.88
2018-06-15T09:47:52.609Z,66.98
2018-06-15T09:48:52.618Z,66.3
2018-06-15T09:49:52.599Z,65.92
2018-06-15T09:50:52.582Z,66.88
2018-06-15T09:51:52.612Z,65.82
2018-06-15T09:52:52.690Z,65.62
2018-06-15T09:53:52.706Z,66.11
2018-06-15T09:54:52.607Z,66.69
2018-06-15T09:55:52.623Z,66.4
2018-06-15T09:56:52.603Z,66.98
2018-06-15T09:57:52.610Z,67.27
2018-06-15T09:58:52.669Z,66.69
2018-06-15T09:59:52.695Z,66.78
2018-06-15T10:00:52.619Z,67.08
2018-06-15T10:01:52.602Z,66.78
2018-06-15T10:02:52.658Z,67.08
2018-06-15T10:03:52.639Z,66.98
2018-06-15T10:04:52.619Z,66.88
2018-06-15T10:05:52.634Z,67.08
2018-06-15T10:06:52.619Z,66.69
2018-06-15T10:07:52.639Z,66.69
2018-06-15T10:08:52.621Z,67.27
2018-06-15T10:09:52.650Z,66.11
2018-06-15T10:10:52.665Z,66.59
2018-06-15T10:11:52.697Z,66.5
2018-06-15T10:12:52.647Z,66.69
2018-06-15T10:13:53.295Z,65.82
2018-06-15T10:14:52.667Z,65.53
2018-06-15T10:15:52.651Z,64.85
2018-06-15T10:16:52.726Z,65.62
2018-06-15T10:17:52.643Z,65.34
2018-06-15T10:18:52.649Z,65.92
2018-06-15T10:19:52.650Z,65.43
2018-06-15T10:20:52.678Z,64.85
2018-06-15T10:21:52.709Z,65.34
2018-06-15T10:22:52.670Z,65.43
2018-06-15T10:23:52.674Z,65.92
2018-06-15T10:24:52.777Z,65.82
2018-06-15T10:25:52.715Z,66.2
2018-06-15T10:26:52.688Z,65.92
2018-06-15T10:27:52.743Z,66.2
2018-06-15T10:28:53.457Z,66.3
2018-06-15T10:29:52.689Z,65.82
2018-06-15T10:30:52.686Z,66.2
2018-06-15T10:31:52.692Z,66.3
2018-06-15T10:32:52.733Z,66.24
2018-06-15T10:33:52.707Z,65.53
2018-06-15T10:34:52.686Z,66.01
2018-06-15T10:35:52.673Z,65.82
2018-06-15T10:36:52.835Z,66.4
2018-06-15T10:37:52.741Z,66.11
2018-06-15T10:38:52.715Z,66.2
2018-06-15T10:39:52.701Z,66.4
2018-06-15T10:40:52.733Z,65.72
2018-06-15T10:41:52.682Z,65.34
2018-06-15T10:42:52.741Z,66.2
2018-06-15T10:43:52.696Z,66.5
2018-06-15T10:44:52.679Z,65.43
2018-06-15T10:45:52.710Z,65.72
2018-06-15T10:46:52.723Z,65.92
2018-06-15T10:47:52.722Z,66.2
2018-06-15T10:48:52.714Z,65.82
2018-06-15T10:49:52.768Z,66.2
2018-06-15T10:50:52.720Z,66.2
2018-06-15T10:51:52.726Z,65.34
2018-06-15T10:52:52.768Z,65.34
2018-06-15T10:53:52.761Z,65.62
2018-06-15T10:54:52.754Z,65.05
2018-06-15T10:55:52.702Z,65.62
2018-06-15T10:56:52.742Z,65.62
2018-06-15T10:57:52.750Z,65.62
2018-06-15T10:58:52.717Z,65.47
2018-06-15T10:59:52.770Z,65.34
2018-06-15T11:00:52.729Z,65.34
2018-06-15T11:01:52.774Z,66.4
2018-06-15T11:02:52.719Z,66.4
2018-06-15T11:03:52.749Z,65.34
2018-06-15T11:04:52.706Z,65.53
2018-06-15T11:05:52.813Z,65.43
2018-06-15T11:06:52.746Z,65.24
2018-06-15T11:07:52.753Z,65.34
2018-06-15T11:08:52.732Z,65.62
2018-06-15T11:09:52.765Z,66.2
2018-06-15T11:10:52.746Z,66.4
2018-06-15T11:11:52.763Z,66.2
2018-06-15T11:12:52.738Z,66.01
2018-06-15T11:13:52.800Z,66.4
2018-06-15T11:14:52.751Z,66.11
2018-06-15T11:15:52.752Z,66.69
2018-06-15T11:16:52.730Z,66.2
2018-06-15T11:17:52.773Z,66.3
2018-06-15T11:18:52.777Z,66.2
2018-06-15T11:19:52.863Z,66.24
2018-06-15T11:20:52.756Z,66.2
2018-06-15T11:21:52.791Z,65.82
2018-06-15T11:22:52.751Z,66.43
2018-06-15T11:23:52.779Z,66.24
2018-06-15T11:24:52.831Z,65.75
2018-06-15T11:25:52.815Z,65.82
2018-06-15T11:26:52.771Z,65.62
2018-06-15T11:27:52.779Z,66.11
2018-06-15T11:28:52.791Z,66.43
2018-06-15T11:29:52.792Z,66.14
2018-06-15T11:30:52.904Z,66.2
2018-06-15T11:31:52.753Z,65.53
2018-06-15T11:32:52.786Z,64.95
2018-06-15T11:33:52.769Z,64.69
2018-06-15T11:34:52.798Z,64.66
2018-06-15T11:35:52.784Z,64.76
2018-06-15T11:36:52.788Z,64.66
2018-06-15T11:37:52.823Z,64.56
2018-06-15T11:38:52.880Z,64.56
2018-06-15T11:43:21.837Z,63.79
2018-06-15T11:44:21.848Z,63.89
2018-06-15T11:45:21.795Z,63.6
2018-06-15T11:46:21.807Z,63.6
2018-06-15T11:47:21.788Z,64.18
2018-06-15T11:48:21.960Z,63.69
2018-06-15T11:49:21.850Z,64.18
2018-06-15T11:50:21.827Z,63.79
2018-06-15T11:51:21.782Z,63.6
2018-06-15T11:52:22.506Z,64.08
2018-06-15T11:53:21.800Z,64.18
2018-06-15T11:54:21.827Z,64.47
2018-06-15T11:55:21.812Z,65.53
2018-06-15T11:56:21.856Z,65.82
2018-06-15T11:57:21.806Z,65.53
2018-06-15T11:58:21.859Z,64.27
2018-06-15T11:59:21.929Z,63.6
2018-06-15T12:00:21.947Z,63.69
2018-06-15T12:01:21.869Z,63.69
2018-06-15T12:02:21.833Z,64.08
2018-06-15T12:03:21.816Z,65.24
2018-06-15T12:04:21.850Z,65.05
2018-06-15T12:05:21.843Z,64.18
2018-06-15T12:06:21.811Z,63.98
2018-06-15T12:07:21.811Z,64.66
2018-06-15T12:08:21.838Z,64.66
2018-06-15T12:09:21.849Z,64.27
2018-06-15T12:10:21.885Z,64.76
2018-06-15T12:11:21.861Z,64.47
2018-06-15T12:12:21.845Z,65.43
2018-06-15T12:13:21.853Z,64.79
2018-06-15T12:14:21.833Z,64.18
2018-06-15T12:15:21.842Z,63.5
2018-06-15T12:16:21.877Z,64.08
2018-06-15T12:17:21.873Z,63.6
2018-06-15T12:18:21.848Z,63.6
2018-06-15T12:19:21.883Z,64.08
2018-06-15T12:20:21.868Z,63.4
2018-06-15T12:21:21.877Z,64.08
2018-06-15T12:22:21.903Z,64.95
2018-06-15T12:23:21.867Z,65.14
2018-06-15T12:24:21.847Z,65.34
2018-06-15T12:25:21.884Z,64.08
2018-06-15T12:26:21.887Z,63.69
2018-06-15T12:27:21.939Z,63.6
2018-06-15T12:28:21.871Z,63.98
2018-06-15T12:29:21.907Z,62.92
2018-06-15T12:30:21.883Z,63.11
2018-06-15T12:31:21.885Z,63.79
2018-06-15T12:32:21.846Z,64.37
2018-06-15T12:33:21.846Z,63.6
2018-06-15T12:34:21.919Z,64.08
2018-06-15T12:35:21.885Z,63.89
2018-06-15T12:36:21.925Z,64.4
2018-06-15T12:39:29.084Z,65.24
2018-06-15T12:39:40.528Z,65.05
2018-06-15T12:40:40.543Z,64.66
2018-06-15T12:41:40.514Z,63.73
2018-06-15T12:42:40.532Z,64.18
2018-06-15T12:43:40.529Z,64.56
2018-06-15T12:44:40.534Z,64.66
2018-06-15T12:45:40.578Z,63.79
2018-06-15T12:46:40.534Z,63.6
2018-06-15T12:47:40.526Z,63.79
2018-06-15T12:48:40.615Z,63.89
2018-06-15T12:49:40.539Z,62.92
2018-06-15T12:50:40.569Z,63.21
2018-06-15T12:51:40.542Z,62.92
2018-06-15T12:52:40.674Z,63.21
2018-06-15T12:53:40.598Z,62.92
2018-06-15T12:54:40.557Z,63.79
2018-06-15T12:55:40.584Z,64.56
2018-06-15T12:56:40.568Z,64.37
2018-06-15T12:57:40.574Z,64.66
2018-06-15T12:58:40.532Z,64.08
2018-06-15T12:59:40.555Z,64.08
2018-06-15T13:00:40.561Z,63.6
2018-06-15T13:01:40.565Z,63.79
2018-06-15T13:02:42.139Z,63.5
2018-06-15T13:03:40.584Z,63.69
2018-06-15T13:04:42.453Z,63.6
2018-06-15T13:05:40.566Z,63.79
2018-06-15T13:06:40.620Z,63.69
2018-06-15T13:07:40.535Z,63.69
2018-06-15T13:08:40.608Z,64.08
2018-06-15T13:09:40.742Z,64.08
2018-06-15T13:10:40.595Z,64.66